createdAt,value
2018-04-12T00:00:16.856Z,10.10
2018-04-12T00:02:44.393Z,10.10
2018-04-12T00:05:12.680Z,10.00
2018-04-12T00:07:40.959Z,10.00
2018-04-12T00:10:09.267Z,10.00
2018-04-12T00:12:36.817Z,10.00
2018-04-12T00:15:04.359Z,10.00
2018-04-12T00:17:32.640Z,9.90
2018-04-12T00:20:00.176Z,9.90
2018-04-12T00:22:27.744Z,9.90
2018-04-12T00:24:56.053Z,9.90
2018-04-12T00:27:23.574Z,9.80
2018-04-12T00:29:51.133Z,9.90
2018-04-12T00:32:19.458Z,10.00
2018-04-12T00:34:46.974Z,10.00
2018-04-12T00:37:14.493Z,10.00
2018-04-12T00:39:42.028Z,10.00
2018-04-12T00:42:09.589Z,10.00
2018-04-12T00:44:37.098Z,10.10
2018-04-12T00:47:05.416Z,10.00
2018-04-12T00:49:32.939Z,10.00
2018-04-12T00:52:00.438Z,10.00
2018-04-12T00:54:27.950Z,9.90
2018-04-12T00:56:56.252Z,9.80
2018-04-12T00:59:23.765Z,9.80
2018-04-12T01:01:51.300Z,9.80
2018-04-12T01:04:18.806Z,9.80
2018-04-12T01:06:47.096Z,9.70
2018-04-12T01:09:14.614Z,9.70
2018-04-12T01:11:42.157Z,9.70
2018-04-12T01:14:09.857Z,9.70
2018-04-12T01:16:38.277Z,9.70
2018-04-12T01:19:05.988Z,9.70
2018-04-12T01:21:33.570Z,9.80
2018-04-12T01:24:01.298Z,9.80
2018-04-12T01:26:28.823Z,9.80
2018-04-12T01:28:56.347Z,9.90
2018-04-12T01:31:24.280Z,9.80
2018-04-12T01:33:51.821Z,9.80
2018-04-12T01:36:19.361Z,9.80
2018-04-12T01:38:46.869Z,9.80
2018-04-12T01:41:14.381Z,9.80
2018-04-12T01:43:41.911Z,9.80
2018-04-12T01:46:09.429Z,9.80
2018-04-12T01:48:36.945Z,9.70
2018-04-12T01:51:04.446Z,9.70
2018-04-12T01:53:31.981Z,9.60
2018-04-12T01:55:59.522Z,9.50
2018-04-12T01:58:27.061Z,9.40
2018-04-12T02:00:54.609Z,9.40
2018-04-12T02:03:22.156Z,9.30
2018-04-12T02:05:49.687Z,9.20
2018-04-12T02:08:17.225Z,9.20
2018-04-12T02:10:44.759Z,9.30
2018-04-12T02:13:12.269Z,9.30
2018-04-12T02:15:39.769Z,9.30
2018-04-12T02:18:07.310Z,9.20
2018-04-12T02:20:34.837Z,9.20
2018-04-12T02:23:02.378Z,9.10
2018-04-12T02:25:29.893Z,9.00
2018-04-12T02:27:57.401Z,9.00
2018-04-12T02:30:24.933Z,9.00
2018-04-12T02:32:52.452Z,9.00
2018-04-12T02:35:19.972Z,9.10
2018-04-12T02:37:47.482Z,9.10
2018-04-12T02:40:15.000Z,9.20
2018-04-12T02:42:42.544Z,9.20
2018-04-12T02:45:10.080Z,9.20
2018-04-12T02:47:37.628Z,9.30
2018-04-12T02:50:05.154Z,9.30
2018-04-12T02:52:32.694Z,9.30
2018-04-12T02:55:00.216Z,9.30
2018-04-12T02:57:27.756Z,9.30
2018-04-12T02:59:55.304Z,9.30
2018-04-12T03:02:22.813Z,9.30
2018-04-12T03:04:50.321Z,9.30
2018-04-12T03:07:18.629Z,9.30
2018-04-12T03:09:46.149Z,9.30
2018-04-12T03:12:13.694Z,9.20
2018-04-12T03:14:41.203Z,9.30
2018-04-12T03:17:08.743Z,9.30
2018-04-12T03:19:36.287Z,9.30
2018-04-12T03:22:04.575Z,9.20
2018-04-12T03:24:32.102Z,9.10
2018-04-12T03:26:59.659Z,9.10
2018-04-12T03:29:27.180Z,9.20
2018-04-12T03:31:54.711Z,9.20
2018-04-12T03:34:22.231Z,9.30
2018-04-12T03:36:49.742Z,9.30
2018-04-12T03:39:17.261Z,9.40
2018-04-12T03:41:44.823Z,9.30
2018-04-12T03:44:13.134Z,9.30
2018-04-12T03:46:40.679Z,9.20
2018-04-12T03:49:08.289Z,9.20
2018-04-12T03:51:35.775Z,9.20
2018-04-12T03:54:03.287Z,9.10
2018-04-12T03:56:30.810Z,9.10
2018-04-12T03:58:58.324Z,9.20
2018-04-12T04:01:25.833Z,9.30
2018-04-12T04:03:53.353Z,9.30
2018-04-12T04:06:20.866Z,9.20
2018-04-12T04:08:48.386Z,9.20
2018-04-12T04:11:15.937Z,9.20
2018-04-12T04:13:44.218Z,9.00
2018-04-12T04:16:24.179Z,9.00
2018-04-12T04:19:03.569Z,9.00
2018-04-12T04:21:31.119Z,9.00
2018-04-12T04:23:58.637Z,9.10
2018-04-12T04:26:26.192Z,9.20
2018-04-12T04:28:53.704Z,9.20
2018-04-12T04:31:21.250Z,9.20
2018-04-12T04:33:48.758Z,9.10
2018-04-12T04:36:17.032Z,8.70
2018-04-12T04:38:45.331Z,8.80
2018-04-12T04:41:12.839Z,8.80
2018-04-12T04:43:40.374Z,8.90
2018-04-12T04:46:07.925Z,8.90
2018-04-12T04:48:35.444Z,8.90
2018-04-12T04:51:03.726Z,9.10
2018-04-12T04:53:31.262Z,9.10
2018-04-12T04:55:58.788Z,9.10
2018-04-12T04:58:26.319Z,9.20
2018-04-12T05:00:53.880Z,9.20
2018-04-12T05:03:21.440Z,9.30
2018-04-12T05:05:48.989Z,9.30
2018-04-12T05:08:16.496Z,9.30
2018-04-12T05:10:44.035Z,9.40
2018-04-12T05:13:11.553Z,9.40
2018-04-12T05:15:39.169Z,9.50
2018-04-12T05:18:07.399Z,9.40
2018-04-12T05:20:34.948Z,9.40
2018-04-12T05:23:02.509Z,9.40
2018-04-12T05:25:30.030Z,9.40
2018-04-12T05:27:57.575Z,9.40
2018-04-12T05:30:25.130Z,9.50
2018-04-12T05:32:52.663Z,9.60
2018-04-12T05:35:20.223Z,9.70
2018-04-12T05:37:47.737Z,9.70
2018-04-12T05:40:15.280Z,9.70
2018-04-12T05:42:42.798Z,9.70
2018-04-12T05:45:10.345Z,9.80
2018-04-12T05:47:37.894Z,9.90
2018-04-12T05:50:05.410Z,9.90
2018-04-12T05:52:32.920Z,10.00
2018-04-12T05:55:00.439Z,10.20
2018-04-12T05:57:28.754Z,10.40
2018-04-12T05:59:56.300Z,10.40
2018-04-12T06:02:23.827Z,10.50
2018-04-12T06:04:52.142Z,10.70
2018-04-12T06:07:19.723Z,10.70
2018-04-12T06:09:47.251Z,10.80
2018-04-12T06:12:14.780Z,11.10
2018-04-12T06:14:42.335Z,11.30
2018-04-12T06:17:10.647Z,11.80
2018-04-12T06:19:38.179Z,11.80
2018-04-12T06:22:05.707Z,12.00
2018-04-12T06:24:33.232Z,12.30
2018-04-12T06:27:00.774Z,12.40
2018-04-12T06:29:28.349Z,12.50
2018-04-12T06:31:55.920Z,12.70
2018-04-12T06:34:23.452Z,12.80
2018-04-12T06:36:50.980Z,13.00
2018-04-12T06:39:18.513Z,13.10
2018-04-12T06:41:46.059Z,13.20
2018-04-12T06:44:13.596Z,13.60
2018-04-12T06:46:41.164Z,13.70
2018-04-12T06:49:08.727Z,13.70
2018-04-12T06:51:36.252Z,13.60
2018-04-12T06:54:03.851Z,13.60
2018-04-12T06:56:31.389Z,13.70
2018-04-12T06:58:58.915Z,13.70
2018-04-12T07:01:27.253Z,13.90
2018-04-12T07:03:54.847Z,13.90
2018-04-12T07:06:22.379Z,13.90
2018-04-12T07:08:49.931Z,13.90
2018-04-12T07:11:17.487Z,13.90
2018-04-12T07:13:45.063Z,13.90
2018-04-12T07:16:12.600Z,13.90
2018-04-12T07:18:40.152Z,13.90
2018-04-12T07:21:07.716Z,14.10
2018-04-12T07:23:35.253Z,14.20
2018-04-12T07:26:02.781Z,14.30
2018-04-12T07:28:30.321Z,14.40
2018-04-12T07:30:57.874Z,14.40
2018-04-12T07:33:25.406Z,14.50
2018-04-12T07:35:52.964Z,14.50
2018-04-12T07:38:20.482Z,14.60
2018-04-12T07:40:48.010Z,14.80
2018-04-12T07:43:15.548Z,15.10
2018-04-12T07:45:43.071Z,15.40
2018-04-12T07:48:10.580Z,15.70
2018-04-12T07:50:38.082Z,15.80
2018-04-12T07:53:05.621Z,16.00
2018-04-12T07:55:33.130Z,16.20
2018-04-12T07:58:00.646Z,16.20
2018-04-12T08:00:28.954Z,16.50
2018-04-12T08:02:56.473Z,16.50
2018-04-12T08:05:24.013Z,16.70
2018-04-12T08:07:51.534Z,16.90
2018-04-12T08:10:19.075Z,16.90
2018-04-12T08:12:46.625Z,17.30
2018-04-12T08:15:14.178Z,17.50
2018-04-12T08:17:41.687Z,17.70
2018-04-12T08:20:09.214Z,17.80
2018-04-12T08:22:36.756Z,17.60
2018-04-12T08:25:04.327Z,17.90
2018-04-12T08:27:31.841Z,18.00
2018-04-12T08:29:59.382Z,18.20
2018-04-12T08:32:26.895Z,18.10
2018-04-12T08:34:54.442Z,18.10
2018-04-12T08:37:21.981Z,18.10
2018-04-12T08:39:50.256Z,18.10
2018-04-12T08:42:18.533Z,18.30
2018-04-12T08:44:46.067Z,18.30
2018-04-12T08:47:13.613Z,18.30
2018-04-12T08:49:41.132Z,18.60
2018-04-12T08:52:08.665Z,18.60
2018-04-12T08:54:36.211Z,19.10
2018-04-12T08:57:03.746Z,18.90
2018-04-12T08:59:31.255Z,19.00
2018-04-12T09:01:58.770Z,19.30
2018-04-12T09:04:26.292Z,19.20
2018-04-12T09:06:53.800Z,19.40
2018-04-12T09:09:21.315Z,19.50
2018-04-12T09:11:48.850Z,19.90
2018-04-12T09:14:16.384Z,19.90
2018-04-12T09:16:44.708Z,19.80
2018-04-12T09:19:12.249Z,19.80
2018-04-12T09:21:39.785Z,20.00
2018-04-12T09:24:08.095Z,19.60
2018-04-12T09:26:35.659Z,19.60
2018-04-12T09:29:03.174Z,19.20
2018-04-12T09:31:30.692Z,19.00
2018-04-12T09:33:58.238Z,18.80
2018-04-12T09:36:25.797Z,18.60
2018-04-12T09:38:53.317Z,18.60
2018-04-12T09:41:21.642Z,18.80
2018-04-12T09:43:49.144Z,18.70
2018-04-12T09:46:17.504Z,18.60
2018-04-12T09:48:45.031Z,18.60
2018-04-12T09:51:12.554Z,18.60
2018-04-12T09:53:40.870Z,18.70
2018-04-12T09:56:08.420Z,18.60
2018-04-12T09:58:35.927Z,18.60
2018-04-12T10:01:09.916Z,18.80
2018-04-12T10:03:37.430Z,18.80
2018-04-12T10:06:04.987Z,18.80
2018-04-12T10:08:32.574Z,18.90
2018-04-12T10:11:00.098Z,18.80
2018-04-12T10:13:27.639Z,18.90
2018-04-12T10:15:55.908Z,18.80
2018-04-12T10:18:23.466Z,18.80
2018-04-12T10:20:51.760Z,18.70
2018-04-12T10:23:19.269Z,18.70
2018-04-12T10:25:46.787Z,18.60
2018-04-12T10:28:14.316Z,18.80
2018-04-12T10:30:41.846Z,18.70
2018-04-12T10:33:09.362Z,18.80
2018-04-12T10:35:36.878Z,19.20
2018-04-12T10:38:04.405Z,19.40
2018-04-12T10:40:31.941Z,19.90
2018-04-12T10:42:59.470Z,19.80
2018-04-12T10:45:26.998Z,19.60
2018-04-12T10:47:54.518Z,19.70
2018-04-12T10:50:22.071Z,20.00
2018-04-12T10:52:49.588Z,19.90
2018-04-12T10:55:17.108Z,20.40
2018-04-12T10:57:44.657Z,20.50
2018-04-12T11:00:12.187Z,20.80
2018-04-12T11:02:40.514Z,21.10
2018-04-12T11:05:08.054Z,21.10
2018-04-12T11:07:35.614Z,21.90
2018-04-12T11:10:03.148Z,22.20
2018-04-12T11:12:30.691Z,21.70
2018-04-12T11:14:58.985Z,22.30
2018-04-12T11:17:27.295Z,21.70
2018-04-12T11:19:54.843Z,21.70
2018-04-12T11:22:22.443Z,21.70
2018-04-12T11:24:51.514Z,21.90
2018-04-12T11:27:19.089Z,21.90
2018-04-12T11:29:46.657Z,21.70
2018-04-12T11:32:14.236Z,21.90
2018-04-12T11:34:42.530Z,22.00
2018-04-12T11:37:10.076Z,21.90
2018-04-12T11:39:37.609Z,22.00
2018-04-12T11:42:05.159Z,21.80
2018-04-12T11:44:32.667Z,22.00
2018-04-12T11:47:00.183Z,22.30
2018-04-12T11:49:27.766Z,22.50
2018-04-12T11:51:55.303Z,22.70
2018-04-12T11:54:22.834Z,22.70
2018-04-12T11:56:50.373Z,22.90
2018-04-12T11:59:17.916Z,22.70
2018-04-12T12:01:45.512Z,22.40
2018-04-12T12:04:13.010Z,22.40
2018-04-12T12:06:41.336Z,22.30
2018-04-12T12:09:08.875Z,22.30
2018-04-12T12:11:36.420Z,22.10
2018-04-12T12:14:04.735Z,22.00
2018-04-12T12:16:32.287Z,21.90
2018-04-12T12:18:59.846Z,21.90
2018-04-12T12:21:27.359Z,21.70
2018-04-12T12:23:55.647Z,21.10
2018-04-12T12:26:23.165Z,21.00
2018-04-12T12:28:50.742Z,20.80
2018-04-12T12:31:19.037Z,20.70
2018-04-12T12:33:47.325Z,20.70
2018-04-12T12:36:14.889Z,20.70
2018-04-12T12:38:42.418Z,20.70
2018-04-12T12:41:10.696Z,20.70
2018-04-12T12:43:44.970Z,20.80
2018-04-12T12:46:18.363Z,20.80
2018-04-12T12:48:51.707Z,21.00
2018-04-12T12:51:25.062Z,21.20
2018-04-12T12:53:58.371Z,21.20
2018-04-12T12:56:25.902Z,21.10
2018-04-12T12:58:59.370Z,21.10
2018-04-12T13:01:26.910Z,21.00
2018-04-12T13:03:55.225Z,20.70
2018-04-12T13:06:22.737Z,20.70
2018-04-12T13:08:56.104Z,20.80
2018-04-12T13:11:29.277Z,20.70
2018-04-12T13:13:56.781Z,20.80
2018-04-12T13:16:24.323Z,20.80
2018-04-12T13:18:51.840Z,20.80
2018-04-12T13:21:19.350Z,20.90
2018-04-12T13:23:58.738Z,20.80
2018-04-12T13:26:26.253Z,20.80
2018-04-12T13:28:53.817Z,20.50
2018-04-12T13:31:27.120Z,20.40
2018-04-12T13:33:55.402Z,20.50
2018-04-12T13:36:22.936Z,20.40
2018-04-12T13:38:50.454Z,20.30
2018-04-12T13:41:18.005Z,20.50
2018-04-12T13:43:45.553Z,20.50
2018-04-12T13:46:13.126Z,20.70
2018-04-12T13:48:40.665Z,20.80
2018-04-12T13:51:08.196Z,20.90
2018-04-12T13:53:42.264Z,21.50
2018-04-12T13:56:09.788Z,21.50
2018-04-12T13:58:37.306Z,22.00
2018-04-12T14:01:04.832Z,22.00
2018-04-12T14:03:32.348Z,21.90
2018-04-12T14:05:59.905Z,21.90
2018-04-12T14:08:28.218Z,21.90
2018-04-12T14:11:01.780Z,21.80
2018-04-12T14:13:30.061Z,22.00
2018-04-12T14:16:09.224Z,22.00
2018-04-12T14:18:36.767Z,21.80
2018-04-12T14:21:10.030Z,21.60
2018-04-12T14:23:44.024Z,21.50
2018-04-12T14:26:11.560Z,21.50
2018-04-12T14:28:44.861Z,21.60
2018-04-12T14:31:18.197Z,21.50
2018-04-12T14:33:45.731Z,21.50
2018-04-12T14:36:19.302Z,21.50
2018-04-12T14:38:46.775Z,21.50
2018-04-12T14:41:20.236Z,21.40
2018-04-12T14:43:47.756Z,21.30
2018-04-12T14:46:26.856Z,21.30
2018-04-12T14:48:54.411Z,21.30
2018-04-12T14:51:21.977Z,21.30
2018-04-12T14:53:49.537Z,21.30
2018-04-12T14:56:17.120Z,21.30
2018-04-12T14:58:50.268Z,21.30
2018-04-12T15:01:17.792Z,21.30
2018-04-12T15:03:51.141Z,21.20
2018-04-12T15:06:18.739Z,21.10
2018-04-12T15:08:47.001Z,21.10
2018-04-12T15:11:15.315Z,21.00
2018-04-12T15:13:48.584Z,21.00
2018-04-12T15:16:16.095Z,21.00
2018-04-12T15:18:43.635Z,21.00
2018-04-12T15:21:11.149Z,21.00
2018-04-12T15:23:38.655Z,21.00
2018-04-12T15:26:11.932Z,21.00
2018-04-12T15:28:45.354Z,21.00
2018-04-12T15:31:12.909Z,21.00
2018-04-12T15:33:40.422Z,21.00
2018-04-12T15:36:08.742Z,20.90
2018-04-12T15:38:36.295Z,20.90
2018-04-12T15:41:03.848Z,20.90
2018-04-12T15:43:31.400Z,20.80
2018-04-12T15:45:58.950Z,20.80
2018-04-12T15:48:27.219Z,20.70
2018-04-12T15:50:54.738Z,20.70
2018-04-12T15:53:22.286Z,20.70
2018-04-12T15:55:49.807Z,20.60
2018-04-12T15:58:23.333Z,20.70
2018-04-12T16:00:50.891Z,20.50
2018-04-12T16:03:18.415Z,20.60
2018-04-12T16:05:45.923Z,20.50
2018-04-12T16:08:13.468Z,20.50
2018-04-12T16:10:40.987Z,20.40
2018-04-12T16:13:08.502Z,20.40
2018-04-12T16:15:36.069Z,20.30
2018-04-12T16:18:09.508Z,20.20
2018-04-12T16:20:37.125Z,20.20
2018-04-12T16:23:04.731Z,20.10
2018-04-12T16:25:43.944Z,20.10
2018-04-12T16:28:11.476Z,20.00
2018-04-12T16:30:44.784Z,20.00
2018-04-12T16:33:18.189Z,20.00
2018-04-12T16:35:45.729Z,20.00
2018-04-12T16:38:19.889Z,19.90
2018-04-12T16:40:47.412Z,19.90
2018-04-12T16:43:15.737Z,20.00
2018-04-12T16:45:49.149Z,20.00
2018-04-12T16:48:22.288Z,20.00
2018-04-12T16:50:50.590Z,20.20
2018-04-12T16:53:18.095Z,20.10
2018-04-12T16:55:51.588Z,20.20
2018-04-12T16:58:25.009Z,20.20
2018-04-12T17:00:53.329Z,20.30
2018-04-12T17:03:20.843Z,20.20
2018-04-12T17:05:49.151Z,20.40
2018-04-12T17:08:16.669Z,20.30
2018-04-12T17:10:56.511Z,20.40
2018-04-12T17:13:30.812Z,20.40
2018-04-12T17:15:58.351Z,20.50
2018-04-12T17:18:25.905Z,20.50
2018-04-12T17:20:59.984Z,20.20
2018-04-12T17:23:27.536Z,20.20
2018-04-12T17:26:00.992Z,19.90
2018-04-12T17:28:29.323Z,19.40
2018-04-12T17:30:56.858Z,19.40
2018-04-12T17:33:24.406Z,19.30
2018-04-12T17:35:51.976Z,19.30
2018-04-12T17:38:20.278Z,19.10
2018-04-12T17:40:53.517Z,19.10
2018-04-12T17:43:21.073Z,19.10
2018-04-12T17:45:48.599Z,19.10
2018-04-12T17:48:16.120Z,19.00
2018-04-12T17:50:44.423Z,19.00
2018-04-12T17:53:23.645Z,19.00
2018-04-12T17:55:51.198Z,18.90
2018-04-12T17:58:18.737Z,18.90
2018-04-12T18:00:51.963Z,18.80
2018-04-12T18:03:19.529Z,18.80
2018-04-12T18:05:47.075Z,18.70
2018-04-12T18:08:14.629Z,18.70
2018-04-12T18:10:42.192Z,18.60
2018-04-12T18:13:09.740Z,18.60
2018-04-12T18:15:43.151Z,18.40
2018-04-12T18:18:10.691Z,18.40
2018-04-12T18:20:39.006Z,18.20
2018-04-12T18:23:12.488Z,18.20
2018-04-12T18:25:45.828Z,18.20
2018-04-12T18:28:14.149Z,18.00
2018-04-12T18:30:41.710Z,18.00
2018-04-12T18:33:09.231Z,18.00
2018-04-12T18:35:36.748Z,18.00
2018-04-12T18:38:09.947Z,17.90
2018-04-12T18:40:37.506Z,17.80
2018-04-12T18:43:10.892Z,17.70
2018-04-12T18:45:44.330Z,17.70
2018-04-12T18:48:17.519Z,17.60
2018-04-12T18:50:45.063Z,17.50
2018-04-12T18:53:12.597Z,17.50
2018-04-12T18:55:51.818Z,17.40
2018-04-12T18:58:19.350Z,17.30
2018-04-12T19:00:52.814Z,17.20
2018-04-12T19:03:20.373Z,17.00
2018-04-12T19:05:47.962Z,17.00
2018-04-12T19:08:16.256Z,16.90
2018-04-12T19:10:43.782Z,16.80
2018-04-12T19:13:17.131Z,16.90
2018-04-12T19:15:44.684Z,16.90
2018-04-12T19:18:12.201Z,16.70
2018-04-12T19:20:45.545Z,16.60
2018-04-12T19:23:13.107Z,16.40
2018-04-12T19:25:40.673Z,16.30
2018-04-12T19:28:08.198Z,16.10
2018-04-12T19:30:35.723Z,16.10
2018-04-12T19:33:03.243Z,16.10
2018-04-12T19:35:30.813Z,16.10
2018-04-12T19:37:58.349Z,16.10
2018-04-12T19:40:25.879Z,16.00
2018-04-12T19:42:53.440Z,16.00
2018-04-12T19:45:21.878Z,16.00
2018-04-12T19:47:49.400Z,16.00
2018-04-12T19:50:22.634Z,15.90
2018-04-12T19:52:56.162Z,15.90
2018-04-12T19:55:24.505Z,15.70
2018-04-12T19:57:52.053Z,15.70
2018-04-12T20:00:19.624Z,15.60
2018-04-12T20:02:47.164Z,15.70
2018-04-12T20:05:20.281Z,15.70
2018-04-12T20:07:47.827Z,15.60
2018-04-12T20:10:21.223Z,15.40
2018-04-12T20:12:48.774Z,15.40
2018-04-12T20:15:16.329Z,15.30
2018-04-12T20:17:55.537Z,15.20
2018-04-12T20:20:23.059Z,15.10
2018-04-12T20:22:51.402Z,15.00
2018-04-12T20:25:18.922Z,15.00
2018-04-12T20:27:46.488Z,14.90
2018-04-12T20:30:14.011Z,14.90
2018-04-12T20:32:42.686Z,14.80
2018-04-12T20:35:10.248Z,14.70
2018-04-12T20:37:37.826Z,14.70
2018-04-12T20:40:05.376Z,14.70
2018-04-12T20:42:33.663Z,14.80
2018-04-12T20:45:01.983Z,14.80
2018-04-12T20:47:29.546Z,14.80
2018-04-12T20:50:08.638Z,14.90
2018-04-12T20:52:36.165Z,14.80
2018-04-12T20:55:03.705Z,14.70
2018-04-12T20:57:31.228Z,14.70
2018-04-12T20:59:58.793Z,14.50
2018-04-12T21:02:33.072Z,14.10
2018-04-12T21:05:01.388Z,14.10
2018-04-12T21:07:28.948Z,14.00
2018-04-12T21:09:56.508Z,14.10
2018-04-12T21:12:24.077Z,14.10
2018-04-12T21:15:03.389Z,14.10
2018-04-12T21:17:36.867Z,14.20
2018-04-12T21:20:10.252Z,14.10
2018-04-12T21:22:38.545Z,14.00
2018-04-12T21:25:06.084Z,14.00
2018-04-12T21:27:34.370Z,13.80
2018-04-12T21:30:07.708Z,13.80
2018-04-12T21:32:35.268Z,13.80
2018-04-12T21:35:08.603Z,13.80
2018-04-12T21:37:36.890Z,13.70
2018-04-12T21:40:17.051Z,13.60
2018-04-12T21:42:50.431Z,13.60
2018-04-12T21:45:24.519Z,13.50
2018-04-12T21:47:52.035Z,13.40
2018-04-12T21:50:19.585Z,13.40
2018-04-12T21:52:52.911Z,13.40
2018-04-12T21:55:32.236Z,13.40
2018-04-12T21:57:59.809Z,13.40
2018-04-12T22:00:39.021Z,13.40
2018-04-12T22:03:12.157Z,13.40
2018-04-12T22:05:45.578Z,13.30
2018-04-12T22:08:13.132Z,13.30
2018-04-12T22:10:47.350Z,13.30
2018-04-12T22:13:21.401Z,13.20
2018-04-12T22:15:48.911Z,13.20
2018-04-12T22:18:22.270Z,13.10
2018-04-12T22:20:49.792Z,13.00
2018-04-12T22:23:17.315Z,13.00
2018-04-12T22:25:45.614Z,13.10
2018-04-12T22:28:13.129Z,13.00
2018-04-12T22:30:46.643Z,13.10
2018-04-12T22:33:14.927Z,12.90
2018-04-12T22:35:43.211Z,12.90
2018-04-12T22:38:11.535Z,12.80
2018-04-12T22:40:39.083Z,12.80
2018-04-12T22:43:06.603Z,12.80
2018-04-12T22:45:46.464Z,12.50
2018-04-12T22:48:13.990Z,12.50
2018-04-12T22:50:41.503Z,12.50
2018-04-12T22:53:09.022Z,12.40
2018-04-12T22:55:37.326Z,12.40
2018-04-12T22:58:04.884Z,12.40
2018-04-12T23:00:32.406Z,12.40
2018-04-12T23:03:05.750Z,12.40
2018-04-12T23:05:33.306Z,12.50
2018-04-12T23:08:00.830Z,12.40
2018-04-12T23:10:29.114Z,12.30
2018-04-12T23:12:57.394Z,12.30
2018-04-12T23:15:36.691Z,12.20
2018-04-12T23:18:10.061Z,12.30
2018-04-12T23:20:43.409Z,12.20
2018-04-12T23:23:17.494Z,12.10
2018-04-12T23:25:45.068Z,12.00
2018-04-12T23:28:12.599Z,11.90
2018-04-12T23:30:40.141Z,11.70
2018-04-12T23:33:07.672Z,11.70
2018-04-12T23:35:41.020Z,11.60
2018-04-12T23:38:08.536Z,11.60
2018-04-12T23:40:36.047Z,11.50
2018-04-12T23:43:03.582Z,11.60
2018-04-12T23:45:37.039Z,11.60
2018-04-12T23:48:04.589Z,11.60
2018-04-12T23:50:32.152Z,11.60
2018-04-12T23:52:59.695Z,11.60
2018-04-12T23:55:33.736Z,11.60
2018-04-12T23:58:01.284Z,11.60
